createdAt,value
2018-06-22T00:00:50.022Z,54.8
2018-06-22T00:02:50.079Z,54.8
2018-06-22T00:04:50.318Z,54.8
2018-06-22T00:06:50.473Z,54.8
2018-06-22T00:08:50.499Z,54.0
2018-06-22T00:10:50.554Z,54.7
2018-06-22T00:12:50.611Z,54.4
2018-06-22T00:14:50.670Z,55.1
2018-06-22T00:16:50.824Z,54.6
2018-06-22T00:18:50.830Z,54.7
2018-06-22T00:20:49.973Z,55.4
2018-06-22T00:22:50.048Z,55.0
2018-06-22T00:24:50.152Z,55.3
2018-06-22T00:26:50.300Z,54.7
2018-06-22T00:28:50.390Z,55.3
2018-06-22T00:30:50.458Z,55.2
2018-06-22T00:32:50.515Z,55.2
2018-06-22T00:34:50.773Z,55.3
2018-06-22T00:36:50.117Z,55.9
2018-06-22T00:38:50.242Z,56.3
2018-06-22T00:40:50.311Z,56.0
2018-06-22T00:42:50.450Z,56.0
2018-06-22T00:44:50.526Z,56.6
2018-06-22T00:46:50.736Z,56.6
2018-06-22T00:48:50.766Z,57.0
2018-06-22T00:50:50.865Z,57.2
2018-06-22T00:52:50.911Z,57.0
2018-06-22T00:54:50.009Z,56.7
2018-06-22T00:56:50.217Z,56.2
2018-06-22T00:58:50.248Z,56.7
2018-06-22T01:00:50.404Z,56.4
2018-06-22T01:02:50.466Z,56.8
2018-06-22T01:04:50.751Z,57.4
2018-06-22T01:06:50.920Z,57.3
2018-06-22T01:08:50.023Z,57.1
2018-06-22T01:10:50.191Z,57.1
2018-06-22T01:12:50.275Z,57.7
2018-06-22T01:14:50.400Z,58.6
2018-06-22T01:16:50.565Z,58.4
2018-06-22T01:18:50.673Z,58.9
2018-06-22T01:20:50.728Z,58.9
2018-06-22T01:22:50.868Z,58.7
2018-06-22T01:24:50.925Z,59.0
2018-06-22T01:26:50.163Z,59.0
2018-06-22T01:28:50.253Z,59.0
2018-06-22T01:30:50.328Z,59.7
2018-06-22T01:32:50.425Z,59.8
2018-06-22T01:34:50.634Z,60.3
2018-06-22T01:36:50.850Z,60.4
2018-06-22T01:38:50.971Z,60.4
2018-06-22T01:40:50.042Z,60.6
2018-06-22T01:42:50.081Z,60.4
2018-06-22T01:44:50.245Z,61.2
2018-06-22T01:46:50.477Z,61.2
2018-06-22T01:48:50.479Z,60.6
2018-06-22T01:50:50.545Z,60.7
2018-06-22T01:52:50.576Z,60.7
2018-06-22T01:54:50.601Z,60.8
2018-06-22T01:56:50.796Z,60.9
2018-06-22T01:58:49.973Z,61.3
2018-06-22T02:00:50.033Z,61.0
2018-06-22T02:02:50.084Z,61.5
2018-06-22T02:04:50.379Z,61.5
2018-06-22T02:06:50.501Z,62.0
2018-06-22T02:08:50.264Z,61.9
2018-06-22T02:10:50.414Z,61.6
2018-06-22T02:12:50.539Z,62.0
2018-06-22T02:14:50.659Z,62.3
2018-06-22T02:16:50.959Z,62.2
2018-06-22T02:18:50.016Z,62.5
2018-06-22T02:20:50.102Z,62.8
2018-06-22T02:22:50.284Z,63.4
2018-06-22T02:24:50.336Z,63.6
2018-06-22T02:26:50.516Z,63.4
2018-06-22T02:28:50.566Z,63.8
2018-06-22T02:30:50.738Z,63.8
2018-06-22T02:32:50.820Z,64.1
2018-06-22T02:34:50.153Z,64.3
2018-06-22T02:36:50.447Z,64.8
2018-06-22T02:38:50.497Z,64.7
2018-06-22T02:40:50.626Z,65.0
2018-06-22T02:42:50.695Z,65.2
2018-06-22T02:44:50.765Z,65.2
2018-06-22T02:46:50.950Z,65.4
2018-06-22T02:48:50.307Z,65.5
2018-06-22T02:50:50.439Z,65.8
2018-06-22T02:52:50.493Z,65.7
2018-06-22T02:54:50.542Z,65.9
2018-06-22T02:56:50.686Z,65.9
2018-06-22T02:58:50.828Z,66.2
2018-06-22T03:00:50.863Z,66.2
2018-06-22T03:02:50.921Z,66.7
2018-06-22T03:04:50.235Z,66.5
2018-06-22T03:06:50.413Z,66.6
2018-06-22T03:08:50.472Z,66.6
2018-06-22T03:10:50.572Z,66.8
2018-06-22T03:12:50.669Z,66.9
2018-06-22T03:14:50.722Z,66.9
2018-06-22T03:16:50.945Z,67.1
2018-06-22T03:18:50.175Z,67.4
2018-06-22T03:20:50.256Z,67.4
2018-06-22T03:22:50.368Z,67.3
2018-06-22T03:24:50.441Z,67.3
2018-06-22T03:26:50.687Z,67.5
2018-06-22T03:28:50.783Z,67.6
2018-06-22T03:30:50.930Z,67.6
2018-06-22T03:32:50.037Z,68.4
2018-06-22T03:34:50.439Z,68.0
2018-06-22T03:36:50.631Z,68.0
2018-06-22T03:38:50.773Z,68.8
2018-06-22T03:40:50.817Z,68.6
2018-06-22T03:42:50.930Z,68.8
2018-06-22T03:44:50.103Z,68.7
2018-06-22T03:46:50.267Z,68.7
2018-06-22T03:48:50.403Z,69.3
2018-06-22T03:50:50.514Z,69.7
2018-06-22T03:52:50.631Z,69.3
2018-06-22T03:54:50.684Z,69.1
2018-06-22T03:56:51.344Z,69.4
2018-06-22T03:58:50.459Z,69.3
2018-06-22T04:00:50.571Z,69.4
2018-06-22T04:02:50.625Z,69.2
2018-06-22T04:04:50.967Z,69.2
2018-06-22T04:06:50.252Z,69.3
2018-06-22T04:08:50.316Z,69.1
2018-06-22T04:10:50.465Z,69.1
2018-06-22T04:12:50.559Z,69.1
2018-06-22T04:14:50.802Z,69.3
2018-06-22T04:16:50.054Z,69.1
2018-06-22T04:18:50.102Z,69.1
2018-06-22T04:20:50.183Z,69.3
2018-06-22T04:22:50.389Z,69.1
2018-06-22T04:24:50.460Z,69.2
2018-06-22T04:26:50.649Z,68.9
2018-06-22T04:28:50.784Z,68.6
2018-06-22T04:30:50.820Z,68.6
2018-06-22T04:32:50.970Z,68.2
2018-06-22T04:34:50.324Z,68.3
2018-06-22T04:36:50.593Z,68.2
2018-06-22T04:38:50.659Z,67.7
2018-06-22T04:40:50.817Z,67.6
2018-06-22T04:42:50.988Z,67.5
2018-06-22T04:44:50.167Z,67.1
2018-06-22T04:46:50.345Z,67.2
2018-06-22T04:48:50.380Z,67.0
2018-06-22T04:50:50.476Z,67.6
2018-06-22T04:52:50.583Z,67.6
2018-06-22T04:54:50.671Z,67.4
2018-06-22T04:56:50.809Z,67.4
2018-06-22T04:58:50.935Z,66.6
2018-06-22T05:00:50.010Z,66.7
2018-06-22T05:02:50.117Z,66.2
2018-06-22T05:04:50.427Z,66.5
2018-06-22T05:06:50.700Z,67.1
2018-06-22T05:08:50.803Z,67.3
2018-06-22T05:10:51.714Z,67.8
2018-06-22T05:12:50.781Z,67.9
2018-06-22T05:14:50.927Z,67.5
2018-06-22T05:16:50.162Z,67.6
2018-06-22T05:18:50.217Z,67.6
2018-06-22T05:20:50.305Z,67.6
2018-06-22T05:22:50.377Z,67.2
2018-06-22T05:24:51.055Z,67.1
2018-06-22T05:26:50.337Z,66.9
2018-06-22T05:28:50.417Z,66.6
2018-06-22T05:30:50.502Z,66.0
2018-06-22T05:32:50.583Z,65.6
2018-06-22T05:34:50.808Z,64.6
2018-06-22T05:36:50.423Z,64.4
2018-06-22T05:38:50.520Z,64.8
2018-06-22T05:40:50.567Z,64.6
2018-06-22T05:42:50.638Z,64.9
2018-06-22T05:44:50.697Z,64.1
2018-06-22T05:46:50.002Z,64.1
2018-06-22T05:48:50.183Z,63.9
2018-06-22T05:50:51.853Z,63.0
2018-06-22T05:52:50.007Z,62.7
2018-06-22T05:54:50.111Z,62.9
2018-06-22T05:56:51.098Z,62.9
2018-06-22T05:58:50.293Z,62.8
2018-06-22T06:00:50.496Z,62.6
2018-06-22T06:02:50.568Z,62.5
2018-06-22T06:04:50.905Z,62.5
2018-06-22T06:06:50.214Z,62.9
2018-06-22T06:08:50.313Z,62.5
2018-06-22T06:10:50.480Z,62.2
2018-06-22T06:12:50.508Z,61.3
2018-06-22T06:14:50.617Z,61.3
2018-06-22T06:16:50.824Z,60.5
2018-06-22T06:18:50.959Z,60.4
2018-06-22T06:20:50.075Z,61.3
2018-06-22T06:22:50.140Z,61.5
2018-06-22T06:24:50.283Z,61.5
2018-06-22T06:26:50.565Z,60.4
2018-06-22T06:28:50.829Z,60.6
2018-06-22T06:30:50.878Z,59.7
2018-06-22T06:32:50.058Z,59.7
2018-06-22T06:34:50.384Z,58.3
2018-06-22T06:36:50.529Z,58.5
2018-06-22T06:38:50.609Z,59.3
2018-06-22T06:40:50.665Z,59.9
2018-06-22T06:42:50.747Z,58.4
2018-06-22T06:44:50.805Z,57.4
2018-06-22T06:46:50.043Z,57.6
2018-06-22T06:48:50.179Z,57.7
2018-06-22T06:50:50.470Z,57.7
2018-06-22T06:52:50.647Z,56.0
2018-06-22T06:54:50.720Z,56.4
2018-06-22T06:56:50.595Z,56.1
2018-06-22T06:58:50.924Z,57.1
2018-06-22T07:00:50.075Z,56.9
2018-06-22T07:02:50.246Z,57.6
2018-06-22T07:04:50.760Z,57.4
2018-06-22T07:06:50.963Z,57.1
2018-06-22T07:08:50.034Z,57.8
2018-06-22T07:10:50.227Z,57.8
2018-06-22T07:12:50.398Z,58.8
2018-06-22T07:14:50.542Z,57.8
2018-06-22T07:16:50.787Z,57.6
2018-06-22T07:18:50.049Z,57.1
2018-06-22T07:20:50.210Z,56.3
2018-06-22T07:22:50.341Z,55.8
2018-06-22T07:24:50.443Z,55.5
2018-06-22T07:26:50.676Z,55.4
2018-06-22T07:28:50.848Z,53.3
2018-06-22T07:30:50.024Z,54.8
2018-06-22T07:32:50.158Z,56.4
2018-06-22T07:34:50.674Z,57.3
2018-06-22T07:36:50.933Z,58.3
2018-06-22T07:38:50.172Z,58.3
2018-06-22T07:40:50.270Z,57.1
2018-06-22T07:42:50.310Z,56.7
2018-06-22T07:44:50.457Z,55.4
2018-06-22T07:46:50.728Z,54.9
2018-06-22T07:48:50.836Z,55.3
2018-06-22T07:50:50.922Z,54.6
2018-06-22T07:52:50.120Z,54.3
2018-06-22T07:54:50.259Z,54.3
2018-06-22T07:56:50.533Z,52.3
2018-06-22T07:58:50.642Z,51.7
2018-06-22T08:00:50.763Z,50.0
2018-06-22T08:02:50.883Z,50.9
2018-06-22T08:04:50.094Z,50.2
2018-06-22T08:06:50.530Z,50.7
2018-06-22T08:08:50.070Z,50.5
2018-06-22T08:10:50.164Z,51.3
2018-06-22T08:12:50.444Z,50.9
2018-06-22T08:14:50.552Z,51.4
2018-06-22T08:16:51.255Z,51.4
2018-06-22T08:18:50.441Z,52.0
2018-06-22T08:20:50.469Z,53.2
2018-06-22T08:22:50.563Z,52.7
2018-06-22T08:24:50.561Z,52.9
2018-06-22T08:26:50.693Z,53.4
2018-06-22T08:28:50.794Z,53.4
2018-06-22T08:30:50.908Z,53.8
2018-06-22T08:32:49.988Z,53.5
2018-06-22T08:34:50.715Z,52.8
2018-06-22T08:36:50.930Z,53.0
2018-06-22T08:38:50.057Z,53.0
2018-06-22T08:40:50.309Z,54.4
2018-06-22T08:42:50.366Z,54.4
2018-06-22T08:44:50.450Z,53.9
2018-06-22T08:46:50.662Z,53.8
2018-06-22T08:48:51.124Z,53.7
2018-06-22T08:50:50.309Z,53.6
2018-06-22T08:52:50.367Z,53.6
2018-06-22T08:54:50.500Z,53.7
2018-06-22T08:56:50.764Z,53.9
2018-06-22T08:58:50.846Z,53.8
2018-06-22T09:00:50.905Z,53.5
2018-06-22T09:02:50.212Z,53.5
2018-06-22T09:04:50.479Z,55.3
2018-06-22T09:06:50.650Z,55.5
2018-06-22T09:08:50.696Z,55.6
2018-06-22T09:10:50.725Z,55.8
2018-06-22T09:12:50.837Z,56.1
2018-06-22T09:14:50.888Z,56.8
2018-06-22T09:16:50.029Z,56.8
2018-06-22T09:18:50.213Z,57.4
2018-06-22T09:20:50.348Z,58.3
2018-06-22T09:22:50.472Z,59.3
2018-06-22T09:24:50.598Z,61.3
2018-06-22T09:26:50.772Z,63.3
2018-06-22T09:28:50.801Z,67.5
2018-06-22T09:30:50.919Z,67.5
2018-06-22T09:32:50.112Z,70.8
2018-06-22T09:34:50.459Z,71.5
2018-06-22T09:36:51.356Z,73.5
2018-06-22T09:38:50.421Z,76.3
2018-06-22T09:40:50.525Z,74.8
2018-06-22T09:42:51.128Z,75.9
2018-06-22T09:44:50.243Z,76.3
2018-06-22T09:46:50.547Z,76.5
2018-06-22T09:48:50.651Z,74.4
2018-06-22T09:50:50.747Z,76.6
2018-06-22T09:52:50.807Z,77.0
2018-06-22T09:54:50.891Z,78.1
2018-06-22T09:56:50.132Z,76.5
2018-06-22T09:58:50.213Z,76.3
2018-06-22T10:00:50.322Z,78.0
2018-06-22T10:02:50.365Z,76.5
2018-06-22T10:04:51.457Z,75.9
2018-06-22T10:06:50.928Z,76.4
2018-06-22T10:08:50.988Z,71.4
2018-06-22T10:10:50.071Z,70.6
2018-06-22T10:12:50.134Z,69.2
2018-06-22T10:14:50.424Z,69.1
2018-06-22T10:16:50.581Z,66.3
2018-06-22T10:18:50.642Z,66.9
2018-06-22T10:20:50.680Z,64.8
2018-06-22T10:22:50.782Z,62.4
2018-06-22T10:24:50.070Z,63.0
2018-06-22T10:26:50.339Z,61.3
2018-06-22T10:28:50.441Z,59.8
2018-06-22T10:30:50.515Z,59.5
2018-06-22T10:32:50.702Z,60.2
2018-06-22T10:34:50.078Z,58.2
2018-06-22T10:36:50.240Z,57.6
2018-06-22T10:38:50.316Z,58.5
2018-06-22T10:40:50.425Z,60.2
2018-06-22T10:42:50.503Z,60.5
2018-06-22T10:44:50.585Z,60.0
2018-06-22T10:46:50.810Z,59.8
2018-06-22T10:48:50.867Z,60.3
2018-06-22T10:50:50.894Z,60.3
2018-06-22T10:52:49.998Z,59.5
2018-06-22T10:54:50.133Z,61.5
2018-06-22T10:56:50.265Z,60.5
2018-06-22T10:58:50.368Z,60.3
2018-06-22T11:00:50.489Z,60.4
2018-06-22T11:02:50.556Z,59.9
2018-06-22T11:04:50.827Z,59.9
2018-06-22T11:06:50.223Z,59.2
2018-06-22T11:08:50.258Z,59.9
2018-06-22T11:10:50.432Z,59.8
2018-06-22T11:12:50.479Z,60.3
2018-06-22T11:14:50.504Z,60.3
2018-06-22T11:16:51.033Z,61.0
2018-06-22T11:18:50.084Z,61.2
2018-06-22T11:20:50.178Z,61.4
2018-06-22T11:22:50.283Z,61.1
2018-06-22T11:24:50.899Z,61.1
2018-06-22T11:26:50.236Z,59.5
2018-06-22T11:28:50.324Z,58.2
2018-06-22T11:30:51.056Z,55.4
2018-06-22T11:32:50.159Z,54.0
2018-06-22T11:34:50.354Z,53.4
2018-06-22T11:36:50.525Z,54
2018-06-22T11:38:50.616Z,54
2018-06-22T11:40:50.055Z,52
2018-06-22T11:42:50.222Z,52
2018-06-22T11:44:50.454Z,52
2018-06-22T11:46:50.620Z,50.8
2018-06-22T11:48:50.673Z,50.8
2018-06-22T11:50:50.751Z,52
2018-06-22T11:52:50.785Z,53
2018-06-22T11:54:50.842Z,52
2018-06-22T11:56:50.090Z,51
2018-06-22T11:58:50.145Z,51
2018-06-22T12:00:50.226Z,51
2018-06-22T12:02:50.453Z,53.4
2018-06-22T12:04:50.935Z,59.6
2018-06-22T12:06:50.222Z,71.8
2018-06-22T12:08:50.352Z,77.6
2018-06-22T12:10:50.849Z,75.5
2018-06-22T12:12:50.466Z,72.0
2018-06-22T12:14:50.733Z,71.2
2018-06-22T12:16:49.999Z,69
2018-06-22T12:18:50.092Z,70
2018-06-22T12:20:50.164Z,70
2018-06-22T12:22:50.618Z,71
2018-06-22T12:24:50.745Z,71
2018-06-22T12:26:50.919Z,71
2018-06-22T12:28:50.055Z,70
2018-06-22T12:30:50.212Z,70
2018-06-22T12:32:50.376Z,70
2018-06-22T12:34:50.695Z,68
2018-06-22T12:36:49.990Z,70
2018-06-22T12:38:50.107Z,67
2018-06-22T12:40:50.170Z,68
2018-06-22T12:42:50.277Z,68
2018-06-22T12:44:50.433Z,66
2018-06-22T12:46:50.148Z,67
2018-06-22T12:48:50.528Z,66
2018-06-22T12:50:50.713Z,70
2018-06-22T12:52:50.244Z,70
2018-06-22T12:54:50.699Z,69
2018-06-22T12:56:51.067Z,65
2018-06-22T12:58:50.643Z,64
2018-06-22T13:00:50.696Z,66
2018-06-22T13:02:50.725Z,66
2018-06-22T13:04:50.090Z,64
2018-06-22T13:06:50.313Z,61
2018-06-22T13:08:50.427Z,61
2018-06-22T13:10:50.584Z,64
2018-06-22T13:12:50.701Z,63
2018-06-22T13:14:50.910Z,61
2018-06-22T13:16:50.207Z,60
2018-06-22T13:18:50.289Z,60
2018-06-22T13:20:50.361Z,59
2018-06-22T13:22:50.482Z,58
2018-06-22T13:24:50.545Z,59
2018-06-22T13:26:50.790Z,59
2018-06-22T13:28:50.824Z,60
2018-06-22T13:30:50.886Z,61
2018-06-22T13:32:49.988Z,59
2018-06-22T13:34:50.180Z,59
2018-06-22T13:36:50.457Z,59
2018-06-22T13:38:50.538Z,59
2018-06-22T13:40:50.620Z,59
2018-06-22T13:42:50.689Z,57
2018-06-22T13:44:50.746Z,58
2018-06-22T13:46:50.929Z,57
2018-06-22T13:48:50.043Z,57
2018-06-22T13:50:50.149Z,56
2018-06-22T13:52:50.253Z,55
2018-06-22T13:54:50.337Z,59
2018-06-22T13:56:51.187Z,50.6
2018-06-22T13:58:50.378Z,51.8
2018-06-22T14:00:50.462Z,54.7
2018-06-22T14:02:50.576Z,64.4
2018-06-22T14:04:50.895Z,64.4
2018-06-22T14:06:50.205Z,67.4
2018-06-22T14:08:50.266Z,64.1
2018-06-22T14:10:50.462Z,57.8
2018-06-22T14:12:50.549Z,58
2018-06-22T14:14:50.617Z,56
2018-06-22T14:16:50.769Z,56
2018-06-22T14:18:50.822Z,56
2018-06-22T14:20:50.990Z,53
2018-06-22T14:22:50.040Z,55
2018-06-22T14:24:50.248Z,55
2018-06-22T14:26:50.366Z,57
2018-06-22T14:28:50.496Z,55
2018-06-22T14:30:51.074Z,53
2018-06-22T14:32:50.168Z,55
2018-06-22T14:34:50.372Z,55
2018-06-22T14:36:50.560Z,52
2018-06-22T14:38:50.575Z,53
2018-06-22T14:40:50.697Z,52
2018-06-22T14:42:50.402Z,53
2018-06-22T14:44:50.544Z,56.5
2018-06-22T14:46:50.684Z,60.4
2018-06-22T14:48:51.214Z,60.8
2018-06-22T14:50:50.271Z,63.2
2018-06-22T14:52:50.327Z,63.6
2018-06-22T14:54:50.400Z,64.3
2018-06-22T14:56:50.616Z,66.0
2018-06-22T14:58:50.669Z,64.0
2018-06-22T15:00:50.727Z,58.7
2018-06-22T15:02:49.956Z,56.6
2018-06-22T15:04:50.695Z,58
2018-06-22T15:06:50.877Z,58
2018-06-22T15:08:49.972Z,59
2018-06-22T15:10:50.112Z,59
2018-06-22T15:12:50.211Z,59
2018-06-22T15:14:50.252Z,59
2018-06-22T15:16:50.691Z,58
2018-06-22T15:18:50.726Z,59
2018-06-22T15:20:50.822Z,59
2018-06-22T15:22:50.862Z,58
2018-06-22T15:24:50.970Z,59
2018-06-22T15:26:50.220Z,59
2018-06-22T15:28:50.280Z,60
2018-06-22T15:30:50.389Z,60
2018-06-22T15:32:50.470Z,60
2018-06-22T15:34:50.718Z,60
2018-06-22T15:36:50.949Z,60
2018-06-22T15:38:49.997Z,60
2018-06-22T15:40:50.140Z,60
2018-06-22T15:42:50.251Z,60
2018-06-22T15:44:50.373Z,60
2018-06-22T15:46:50.580Z,59
2018-06-22T15:48:50.645Z,58
2018-06-22T15:50:50.720Z,58
2018-06-22T15:52:50.809Z,58
2018-06-22T15:54:50.862Z,58
2018-06-22T15:56:50.068Z,57
2018-06-22T15:58:50.157Z,57
2018-06-22T16:00:50.238Z,57
2018-06-22T16:02:50.345Z,57
2018-06-22T16:04:50.759Z,55.1
2018-06-22T16:06:50.944Z,55.0
2018-06-22T16:08:50.078Z,55.9
2018-06-22T16:10:50.209Z,56.1
2018-06-22T16:12:50.252Z,56.1
2018-06-22T16:14:50.379Z,54.0
2018-06-22T16:16:50.583Z,55.5
2018-06-22T16:18:50.635Z,55.0
2018-06-22T16:20:50.721Z,54.2
2018-06-22T16:22:50.851Z,54.1
2018-06-22T16:24:50.934Z,51.9
2018-06-22T16:26:50.169Z,51.2
2018-06-22T16:28:50.661Z,51.9
2018-06-22T16:30:50.707Z,52.7
2018-06-22T16:32:50.857Z,53.0
2018-06-22T16:34:50.247Z,53.0
2018-06-22T16:36:50.630Z,53.4
2018-06-22T16:38:50.857Z,53.4
2018-06-22T16:40:50.943Z,53.6
2018-06-22T16:42:50.048Z,53.7
2018-06-22T16:44:50.076Z,53.6
2018-06-22T16:46:50.308Z,53.4
2018-06-22T16:48:50.538Z,52.7
2018-06-22T16:50:50.688Z,52.5
2018-06-22T16:52:50.706Z,52.3
2018-06-22T16:54:50.759Z,52.7
2018-06-22T16:56:50.054Z,53.5
2018-06-22T16:58:50.116Z,52.4
2018-06-22T17:00:50.171Z,52.1
2018-06-22T17:02:50.236Z,51.6
2018-06-22T17:04:50.508Z,52.1
2018-06-22T17:06:50.749Z,51.8
2018-06-22T17:08:50.856Z,51.7
2018-06-22T17:10:50.939Z,52.5
2018-06-22T17:12:50.015Z,51.6
2018-06-22T17:14:50.118Z,52.0
2018-06-22T17:16:50.515Z,52.4
2018-06-22T17:18:50.565Z,52.4
2018-06-22T17:20:50.937Z,52.5
2018-06-22T17:22:50.059Z,52.6
2018-06-22T17:24:50.116Z,52.8
2018-06-22T17:26:50.329Z,52.8
2018-06-22T17:28:50.413Z,53.0
2018-06-22T17:30:50.496Z,52.9
2018-06-22T17:32:50.535Z,53.0
2018-06-22T17:34:50.715Z,52.8
2018-06-22T17:36:50.025Z,53.1
2018-06-22T17:38:50.051Z,52.6
2018-06-22T17:40:50.134Z,52.2
2018-06-22T17:42:50.170Z,51.9
2018-06-22T17:44:50.207Z,52.3
2018-06-22T17:46:50.376Z,52.2
2018-06-22T17:48:50.428Z,52.8
2018-06-22T17:50:50.504Z,52.8
2018-06-22T17:52:50.665Z,53.1
2018-06-22T17:54:50.708Z,53.4
2018-06-22T17:56:50.850Z,53.6
2018-06-22T17:58:50.901Z,53.8
2018-06-22T18:00:49.988Z,54.2
2018-06-22T18:02:50.151Z,54.8
2018-06-22T18:04:50.498Z,54.8
2018-06-22T18:06:50.847Z,54.0
2018-06-22T18:08:50.946Z,54.0
2018-06-22T18:10:50.920Z,54.0
2018-06-22T18:12:50.988Z,54.0
2018-06-22T18:14:50.702Z,54.1
2018-06-22T18:16:50.871Z,54.2
2018-06-22T18:18:50.921Z,54.4
2018-06-22T18:20:50.955Z,54.4
2018-06-22T18:22:50.756Z,54.1
2018-06-22T18:24:49.987Z,54.8
2018-06-22T18:26:50.160Z,55.2
2018-06-22T18:28:50.211Z,55.5
2018-06-22T18:30:50.352Z,55.5
2018-06-22T18:32:50.460Z,55.6
2018-06-22T18:34:50.646Z,56.4
2018-06-22T18:36:50.025Z,56.1
2018-06-22T18:38:50.098Z,56.1
2018-06-22T18:40:50.248Z,56.8
2018-06-22T18:42:50.353Z,56.3
2018-06-22T18:44:50.380Z,56.5
2018-06-22T18:46:50.650Z,56.7
2018-06-22T18:48:50.731Z,57.0
2018-06-22T18:50:50.810Z,57.3
2018-06-22T18:52:50.857Z,57.4
2018-06-22T18:54:50.928Z,57.7
2018-06-22T18:56:50.771Z,57.8
2018-06-22T18:58:50.080Z,57.8
2018-06-22T19:00:50.161Z,58.1
2018-06-22T19:02:50.183Z,57.6
2018-06-22T19:04:51.312Z,58.2
2018-06-22T19:06:50.580Z,58.0
2018-06-22T19:08:50.627Z,57.9
2018-06-22T19:10:50.655Z,57.9
2018-06-22T19:12:50.709Z,58.0
2018-06-22T19:14:50.911Z,57.5
2018-06-22T19:16:50.342Z,57.7
2018-06-22T19:18:51.799Z,58.0
2018-06-22T19:20:50.894Z,58.0
2018-06-22T19:22:50.966Z,58.2
2018-06-22T19:24:50.028Z,58.2
2018-06-22T19:26:50.361Z,59.6
2018-06-22T19:28:50.462Z,58.6
2018-06-22T19:30:50.501Z,58.8
2018-06-22T19:32:50.579Z,58.9
2018-06-22T19:34:50.935Z,58.8
2018-06-22T19:36:50.840Z,59.3
2018-06-22T19:38:51.015Z,59.1
2018-06-22T19:40:50.078Z,59.1
2018-06-22T19:42:50.235Z,59.5
2018-06-22T19:44:50.308Z,59.8
2018-06-22T19:46:50.853Z,60.5
2018-06-22T19:48:49.989Z,60.7
2018-06-22T19:50:50.259Z,60.4
2018-06-22T19:52:50.975Z,60.6
2018-06-22T19:54:50.111Z,61.3
2018-06-22T19:56:50.312Z,61.4
2018-06-22T19:58:50.454Z,61.5
2018-06-22T20:00:50.617Z,61.7
2018-06-22T20:02:50.731Z,61.6
2018-06-22T20:04:50.153Z,61.4
2018-06-22T20:06:50.421Z,62.2
2018-06-22T20:08:50.492Z,62.1
2018-06-22T20:10:51.542Z,62.1
2018-06-22T20:12:50.576Z,62.6
2018-06-22T20:14:49.995Z,62.5
2018-06-22T20:16:50.301Z,62.7
2018-06-22T20:18:50.385Z,62.7
2018-06-22T20:20:50.707Z,62.9
2018-06-22T20:22:51.932Z,63.5
2018-06-22T20:24:50.015Z,63.5
2018-06-22T20:26:50.249Z,64.0
2018-06-22T20:28:50.344Z,64.2
2018-06-22T20:30:50.523Z,64.2
2018-06-22T20:32:50.773Z,64.2
2018-06-22T20:34:49.978Z,64.8
2018-06-22T20:36:50.243Z,64.8
2018-06-22T20:38:50.283Z,64.6
2018-06-22T20:40:50.323Z,64.4
2018-06-22T20:42:50.401Z,64.5
2018-06-22T20:44:50.478Z,64.5
2018-06-22T20:46:50.686Z,64.5
2018-06-22T20:48:50.752Z,64.4
2018-06-22T20:50:50.782Z,64.7
2018-06-22T20:52:51.010Z,64.5
2018-06-22T20:54:50.067Z,64.6
2018-06-22T20:56:50.262Z,64.7
2018-06-22T20:58:50.516Z,64.9
2018-06-22T21:00:50.577Z,64.9
2018-06-22T21:02:50.641Z,65.2
2018-06-22T21:04:50.946Z,65.2
2018-06-22T21:06:50.117Z,65.5
2018-06-22T21:08:50.273Z,65.5
2018-06-22T21:10:50.337Z,65.8
2018-06-22T21:12:51.299Z,65.8
2018-06-22T21:14:50.452Z,66.0
2018-06-22T21:16:50.723Z,66.1
2018-06-22T21:18:50.857Z,65.8
2018-06-22T21:20:49.969Z,65.7
2018-06-22T21:22:50.034Z,65.7
2018-06-22T21:24:50.140Z,65.7
2018-06-22T21:26:50.398Z,65.7
2018-06-22T21:28:50.552Z,65.6
2018-06-22T21:30:50.729Z,65.7
2018-06-22T21:32:50.557Z,65.7
2018-06-22T21:34:51.011Z,65.7
2018-06-22T21:36:50.252Z,66.4
2018-06-22T21:38:50.347Z,65.8
2018-06-22T21:40:50.217Z,65.6
2018-06-22T21:42:50.308Z,66.0
2018-06-22T21:44:50.384Z,65.6
2018-06-22T21:46:50.940Z,65.4
2018-06-22T21:48:50.100Z,65.6
2018-06-22T21:50:50.181Z,65.5
2018-06-22T21:52:50.435Z,66.0
2018-06-22T21:54:50.782Z,66.3
2018-06-22T21:56:50.163Z,66.2
2018-06-22T21:58:50.316Z,66.2
2018-06-22T22:00:50.900Z,66.4
2018-06-22T22:02:50.091Z,66.5
2018-06-22T22:04:50.614Z,67.0
2018-06-22T22:06:50.070Z,66.8
2018-06-22T22:08:50.318Z,66.9
2018-06-22T22:10:50.554Z,67.0
2018-06-22T22:12:50.848Z,67.0
2018-06-22T22:14:50.262Z,67.1
2018-06-22T22:16:50.727Z,67.5
2018-06-22T22:18:50.041Z,67.5
2018-06-22T22:20:50.272Z,67.3
2018-06-22T22:22:50.559Z,67.7
2018-06-22T22:24:50.856Z,67.5
2018-06-22T22:26:50.157Z,68.2
2018-06-22T22:28:50.438Z,68.0
2018-06-22T22:30:50.615Z,67.6
2018-06-22T22:32:50.983Z,67.6
2018-06-22T22:34:50.251Z,67.6
2018-06-22T22:36:50.504Z,67.6
2018-06-22T22:38:50.601Z,67.5
2018-06-22T22:40:50.747Z,67.6
2018-06-22T22:42:50.893Z,67.7
2018-06-22T22:44:50.108Z,67.5
2018-06-22T22:46:50.381Z,67.5
2018-06-22T22:48:50.503Z,68.0
2018-06-22T22:50:50.928Z,67.7
2018-06-22T22:52:50.348Z,68.2
2018-06-22T22:54:50.595Z,68.2
2018-06-22T22:56:50.872Z,68.5
2018-06-22T22:58:50.009Z,68.6
2018-06-22T23:00:50.073Z,69.0
2018-06-22T23:02:50.284Z,69.2
2018-06-22T23:04:50.514Z,70.0
2018-06-22T23:06:50.692Z,69.7
2018-06-22T23:08:50.857Z,69.7
2018-06-22T23:10:50.063Z,69.8
2018-06-22T23:12:50.209Z,70.2
2018-06-22T23:14:50.376Z,70.7
2018-06-22T23:16:50.709Z,71.0
2018-06-22T23:18:50.935Z,71.1
2018-06-22T23:20:50.234Z,71.5
2018-06-22T23:22:50.370Z,72.6
2018-06-22T23:24:50.516Z,72.6
2018-06-22T23:26:50.765Z,72.5
2018-06-22T23:28:50.036Z,72.2
2018-06-22T23:30:50.334Z,71.9
2018-06-22T23:32:50.458Z,72.1
2018-06-22T23:34:50.815Z,72.2
2018-06-22T23:36:50.001Z,72.7
2018-06-22T23:38:50.059Z,72.4
2018-06-22T23:40:50.130Z,72.3
2018-06-22T23:42:50.174Z,72.2
2018-06-22T23:44:50.316Z,72.1
2018-06-22T23:46:50.557Z,72.1
2018-06-22T23:48:50.628Z,72.7
2018-06-22T23:50:50.712Z,72.9
2018-06-22T23:52:50.773Z,72.2
2018-06-22T23:54:50.968Z,72.6
2018-06-22T23:56:50.142Z,72.6
2018-06-22T23:58:50.191Z,71.8
